sensor_id;sensor_type;location;lat;lon;timestamp;P1;durP1;ratioP1;P2;durP2;ratioP2
40244;SDS011;25963;42.694;23.600;2022-08-19T00:01:26;9.60;;;8.48;;
40244;SDS011;25963;42.694;23.600;2022-08-19T00:03:55;8.32;;;7.55;;
40244;SDS011;25963;42.694;23.600;2022-08-19T00:06:23;8.82;;;8.02;;
40244;SDS011;25963;42.694;23.600;2022-08-19T00:08:50;8.15;;;7.35;;
40244;SDS011;25963;42.694;23.600;2022-08-19T00:11:17;8.63;;;7.70;;
40244;SDS011;25963;42.694;23.600;2022-08-19T00:13:43;9.52;;;8.30;;
40244;SDS011;25963;42.694;23.600;2022-08-19T00:16:10;10.13;;;8.05;;
40244;SDS011;25963;42.694;23.600;2022-08-19T00:18:36;9.70;;;7.85;;
40244;SDS011;25963;42.694;23.600;2022-08-19T00:21:03;8.75;;;8.00;;
40244;SDS011;25963;42.694;23.600;2022-08-19T00:23:34;10.68;;;7.85;;
40244;SDS011;25963;42.694;23.600;2022-08-19T00:26:01;10.15;;;7.53;;
40244;SDS011;25963;42.694;23.600;2022-08-19T00:28:28;8.48;;;7.57;;
40244;SDS011;25963;42.694;23.600;2022-08-19T00:30:54;9.52;;;8.45;;
40244;SDS011;25963;42.694;23.600;2022-08-19T00:33:20;8.70;;;7.65;;
40244;SDS011;25963;42.694;23.600;2022-08-19T00:35:47;9.05;;;8.15;;
40244;SDS011;25963;42.694;23.600;2022-08-19T00:38:12;10.65;;;8.05;;
40244;SDS011;25963;42.694;23.600;2022-08-19T00:40:38;9.77;;;8.27;;
40244;SDS011;25963;42.694;23.600;2022-08-19T00:43:10;8.85;;;7.93;;
40244;SDS011;25963;42.694;23.600;2022-08-19T00:45:39;9.07;;;8.18;;
40244;SDS011;25963;42.694;23.600;2022-08-19T00:48:08;8.40;;;7.68;;
40244;SDS011;25963;42.694;23.600;2022-08-19T00:50:34;8.55;;;7.82;;
40244;SDS011;25963;42.694;23.600;2022-08-19T00:53:00;8.43;;;7.72;;
40244;SDS011;25963;42.694;23.600;2022-08-19T00:55:29;9.25;;;7.88;;
40244;SDS011;25963;42.694;23.600;2022-08-19T00:57:58;8.60;;;7.70;;
40244;SDS011;25963;42.694;23.600;2022-08-19T01:00:29;9.25;;;8.45;;
40244;SDS011;25963;42.694;23.600;2022-08-19T01:02:56;9.07;;;8.27;;
40244;SDS011;25963;42.694;23.600;2022-08-19T01:05:26;9.23;;;8.13;;
40244;SDS011;25963;42.694;23.600;2022-08-19T01:07:54;9.63;;;8.63;;
40244;SDS011;25963;42.694;23.600;2022-08-19T01:10:23;7.85;;;7.15;;
40244;SDS011;25963;42.694;23.600;2022-08-19T01:12:51;8.90;;;8.13;;
40244;SDS011;25963;42.694;23.600;2022-08-19T01:15:20;9.68;;;8.77;;
40244;SDS011;25963;42.694;23.600;2022-08-19T01:17:50;11.85;;;8.68;;
40244;SDS011;25963;42.694;23.600;2022-08-19T01:20:18;8.85;;;8.05;;
40244;SDS011;25963;42.694;23.600;2022-08-19T01:22:55;8.73;;;7.75;;
40244;SDS011;25963;42.694;23.600;2022-08-19T01:25:28;9.55;;;8.60;;
40244;SDS011;25963;42.694;23.600;2022-08-19T01:27:56;9.45;;;8.32;;
40244;SDS011;25963;42.694;23.600;2022-08-19T01:30:31;8.73;;;7.82;;
40244;SDS011;25963;42.694;23.600;2022-08-19T01:32:59;9.18;;;7.60;;
40244;SDS011;25963;42.694;23.600;2022-08-19T01:35:27;9.27;;;8.35;;
40244;SDS011;25963;42.694;23.600;2022-08-19T01:38:01;8.77;;;7.97;;
40244;SDS011;25963;42.694;23.600;2022-08-19T01:40:33;9.13;;;8.27;;
40244;SDS011;25963;42.694;23.600;2022-08-19T01:43:01;9.82;;;8.93;;
40244;SDS011;25963;42.694;23.600;2022-08-19T01:45:30;10.10;;;8.88;;
40244;SDS011;25963;42.694;23.600;2022-08-19T01:47:59;11.75;;;9.38;;
40244;SDS011;25963;42.694;23.600;2022-08-19T01:50:25;10.50;;;9.60;;
40244;SDS011;25963;42.694;23.600;2022-08-19T01:52:51;12.15;;;9.18;;
40244;SDS011;25963;42.694;23.600;2022-08-19T01:55:18;11.15;;;9.75;;
40244;SDS011;25963;42.694;23.600;2022-08-19T01:57:47;12.57;;;10.00;;
40244;SDS011;25963;42.694;23.600;2022-08-19T02:00:18;10.35;;;9.27;;
40244;SDS011;25963;42.694;23.600;2022-08-19T02:02:45;15.45;;;9.30;;
40244;SDS011;25963;42.694;23.600;2022-08-19T02:05:11;9.68;;;8.68;;
40244;SDS011;25963;42.694;23.600;2022-08-19T02:07:38;13.48;;;9.52;;
40244;SDS011;25963;42.694;23.600;2022-08-19T02:10:10;9.30;;;8.40;;
40244;SDS011;25963;42.694;23.600;2022-08-19T02:12:39;9.68;;;8.68;;
40244;SDS011;25963;42.694;23.600;2022-08-19T02:15:06;9.05;;;8.25;;
40244;SDS011;25963;42.694;23.600;2022-08-19T02:17:32;9.95;;;8.95;;
40244;SDS011;25963;42.694;23.600;2022-08-19T02:19:59;10.10;;;9.00;;
40244;SDS011;25963;42.694;23.600;2022-08-19T02:22:25;12.50;;;9.20;;
40244;SDS011;25963;42.694;23.600;2022-08-19T02:24:51;10.05;;;9.02;;
40244;SDS011;25963;42.694;23.600;2022-08-19T02:27:17;12.63;;;9.90;;
40244;SDS011;25963;42.694;23.600;2022-08-19T02:29:48;10.18;;;8.52;;
40244;SDS011;25963;42.694;23.600;2022-08-19T02:32:15;10.10;;;9.07;;
40244;SDS011;25963;42.694;23.600;2022-08-19T02:34:42;10.65;;;8.90;;
40244;SDS011;25963;42.694;23.600;2022-08-19T02:37:07;10.30;;;8.32;;
40244;SDS011;25963;42.694;23.600;2022-08-19T02:39:56;9.75;;;8.75;;
40244;SDS011;25963;42.694;23.600;2022-08-19T02:42:21;9.93;;;8.45;;
40244;SDS011;25963;42.694;23.600;2022-08-19T02:44:48;9.27;;;8.07;;
40244;SDS011;25963;42.694;23.600;2022-08-19T02:47:14;10.32;;;8.63;;
40244;SDS011;25963;42.694;23.600;2022-08-19T02:49:40;9.43;;;8.50;;
40244;SDS011;25963;42.694;23.600;2022-08-19T02:52:06;10.60;;;8.60;;
40244;SDS011;25963;42.694;23.600;2022-08-19T02:54:33;9.23;;;8.23;;
40244;SDS011;25963;42.694;23.600;2022-08-19T02:56:58;8.57;;;7.75;;
40244;SDS011;25963;42.694;23.600;2022-08-19T02:59:24;10.15;;;9.15;;
40244;SDS011;25963;42.694;23.600;2022-08-19T03:01:51;10.20;;;9.13;;
40244;SDS011;25963;42.694;23.600;2022-08-19T03:04:17;9.70;;;8.68;;
40244;SDS011;25963;42.694;23.600;2022-08-19T03:06:45;8.75;;;7.97;;
40244;SDS011;25963;42.694;23.600;2022-08-19T03:09:12;10.65;;;8.75;;
40244;SDS011;25963;42.694;23.600;2022-08-19T03:11:39;11.02;;;8.75;;
40244;SDS011;25963;42.694;23.600;2022-08-19T03:14:06;13.32;;;8.23;;
40244;SDS011;25963;42.694;23.600;2022-08-19T03:16:34;9.35;;;8.32;;
40244;SDS011;25963;42.694;23.600;2022-08-19T03:19:06;9.27;;;7.80;;
40244;SDS011;25963;42.694;23.600;2022-08-19T03:21:32;11.85;;;8.95;;
40244;SDS011;25963;42.694;23.600;2022-08-19T03:24:03;9.63;;;8.55;;
40244;SDS011;25963;42.694;23.600;2022-08-19T03:26:31;9.02;;;8.15;;
40244;SDS011;25963;42.694;23.600;2022-08-19T03:29:00;9.43;;;8.52;;
40244;SDS011;25963;42.694;23.600;2022-08-19T03:31:28;12.85;;;9.05;;
40244;SDS011;25963;42.694;23.600;2022-08-19T03:33:53;13.02;;;9.40;;
40244;SDS011;25963;42.694;23.600;2022-08-19T03:36:22;17.98;;;9.70;;
40244;SDS011;25963;42.694;23.600;2022-08-19T03:38:50;11.07;;;9.05;;
40244;SDS011;25963;42.694;23.600;2022-08-19T03:41:20;10.10;;;9.10;;
40244;SDS011;25963;42.694;23.600;2022-08-19T03:43:53;11.98;;;9.35;;
40244;SDS011;25963;42.694;23.600;2022-08-19T03:46:24;10.40;;;9.50;;
40244;SDS011;25963;42.694;23.600;2022-08-19T03:48:52;10.98;;;9.88;;
40244;SDS011;25963;42.694;23.600;2022-08-19T03:51:22;12.60;;;9.10;;
40244;SDS011;25963;42.694;23.600;2022-08-19T03:53:53;12.32;;;9.73;;
40244;SDS011;25963;42.694;23.600;2022-08-19T03:56:21;10.98;;;9.45;;
40244;SDS011;25963;42.694;23.600;2022-08-19T03:58:50;12.25;;;9.90;;
40244;SDS011;25963;42.694;23.600;2022-08-19T04:01:18;10.40;;;8.52;;
40244;SDS011;25963;42.694;23.600;2022-08-19T04:03:44;12.38;;;9.00;;
40244;SDS011;25963;42.694;23.600;2022-08-19T04:06:28;11.60;;;9.48;;
40244;SDS011;25963;42.694;23.600;2022-08-19T04:08:57;12.07;;;9.45;;
40244;SDS011;25963;42.694;23.600;2022-08-19T04:11:28;11.07;;;8.95;;
40244;SDS011;25963;42.694;23.600;2022-08-19T04:13:59;13.43;;;9.02;;
40244;SDS011;25963;42.694;23.600;2022-08-19T04:16:25;10.85;;;8.52;;
40244;SDS011;25963;42.694;23.600;2022-08-19T04:18:55;16.05;;;8.63;;
40244;SDS011;25963;42.694;23.600;2022-08-19T04:21:25;11.57;;;8.45;;
40244;SDS011;25963;42.694;23.600;2022-08-19T04:23:55;10.30;;;8.80;;
40244;SDS011;25963;42.694;23.600;2022-08-19T04:26:26;8.27;;;7.43;;
40244;SDS011;25963;42.694;23.600;2022-08-19T04:28:58;10.18;;;7.82;;
40244;SDS011;25963;42.694;23.600;2022-08-19T04:31:25;25.67;;;9.18;;
40244;SDS011;25963;42.694;23.600;2022-08-19T04:33:56;32.08;;;10.35;;
40244;SDS011;25963;42.694;23.600;2022-08-19T04:36:29;21.38;;;8.93;;
40244;SDS011;25963;42.694;23.600;2022-08-19T04:38:58;13.10;;;7.95;;
40244;SDS011;25963;42.694;23.600;2022-08-19T04:41:26;9.45;;;7.43;;
40244;SDS011;25963;42.694;23.600;2022-08-19T04:44:11;7.97;;;7.28;;
40244;SDS011;25963;42.694;23.600;2022-08-19T04:46:37;9.43;;;6.28;;
40244;SDS011;25963;42.694;23.600;2022-08-19T04:49:03;7.25;;;6.65;;
40244;SDS011;25963;42.694;23.600;2022-08-19T04:51:30;9.55;;;6.78;;
40244;SDS011;25963;42.694;23.600;2022-08-19T04:53:57;6.78;;;5.93;;
40244;SDS011;25963;42.694;23.600;2022-08-19T04:56:25;7.97;;;6.00;;
40244;SDS011;25963;42.694;23.600;2022-08-19T04:58:51;7.00;;;5.70;;
40244;SDS011;25963;42.694;23.600;2022-08-19T05:01:19;5.85;;;5.35;;
40244;SDS011;25963;42.694;23.600;2022-08-19T05:03:47;8.02;;;4.75;;
40244;SDS011;25963;42.694;23.600;2022-08-19T05:06:14;7.15;;;5.53;;
40244;SDS011;25963;42.694;23.600;2022-08-19T05:08:41;5.40;;;4.90;;
40244;SDS011;25963;42.694;23.600;2022-08-19T05:11:15;6.97;;;5.15;;
40244;SDS011;25963;42.694;23.600;2022-08-19T05:13:46;5.25;;;4.75;;
40244;SDS011;25963;42.694;23.600;2022-08-19T05:16:14;11.50;;;5.10;;
40244;SDS011;25963;42.694;23.600;2022-08-19T05:18:41;6.53;;;5.40;;
40244;SDS011;25963;42.694;23.600;2022-08-19T05:21:25;6.03;;;5.43;;
40244;SDS011;25963;42.694;23.600;2022-08-19T05:24:11;6.40;;;4.80;;
40244;SDS011;25963;42.694;23.600;2022-08-19T05:26:40;7.20;;;5.55;;
40244;SDS011;25963;42.694;23.600;2022-08-19T05:29:11;7.10;;;4.93;;
40244;SDS011;25963;42.694;23.600;2022-08-19T05:31:38;8.55;;;5.20;;
40244;SDS011;25963;42.694;23.600;2022-08-19T05:34:05;7.35;;;5.20;;
40244;SDS011;25963;42.694;23.600;2022-08-19T05:36:35;6.25;;;5.07;;
40244;SDS011;25963;42.694;23.600;2022-08-19T05:39:04;6.93;;;5.35;;
40244;SDS011;25963;42.694;23.600;2022-08-19T05:41:31;7.85;;;5.25;;
40244;SDS011;25963;42.694;23.600;2022-08-19T05:43:56;6.50;;;5.50;;
40244;SDS011;25963;42.694;23.600;2022-08-19T05:46:26;9.70;;;4.80;;
40244;SDS011;25963;42.694;23.600;2022-08-19T05:48:55;7.78;;;5.60;;
40244;SDS011;25963;42.694;23.600;2022-08-19T05:51:22;6.95;;;6.05;;
40244;SDS011;25963;42.694;23.600;2022-08-19T05:53:51;7.97;;;5.47;;
40244;SDS011;25963;42.694;23.600;2022-08-19T05:56:17;5.88;;;5.38;;
40244;SDS011;25963;42.694;23.600;2022-08-19T05:58:44;6.10;;;5.35;;
40244;SDS011;25963;42.694;23.600;2022-08-19T06:01:14;9.20;;;5.80;;
40244;SDS011;25963;42.694;23.600;2022-08-19T06:03:41;9.18;;;4.90;;
40244;SDS011;25963;42.694;23.600;2022-08-19T06:06:08;6.40;;;5.20;;
40244;SDS011;25963;42.694;23.600;2022-08-19T06:08:35;6.45;;;5.60;;
40244;SDS011;25963;42.694;23.600;2022-08-19T06:11:13;8.90;;;6.03;;
40244;SDS011;25963;42.694;23.600;2022-08-19T06:13:46;7.05;;;6.25;;
40244;SDS011;25963;42.694;23.600;2022-08-19T06:16:15;7.35;;;5.72;;
40244;SDS011;25963;42.694;23.600;2022-08-19T06:18:47;6.93;;;6.22;;
40244;SDS011;25963;42.694;23.600;2022-08-19T06:21:20;6.70;;;6.00;;
40244;SDS011;25963;42.694;23.600;2022-08-19T06:23:47;7.68;;;6.50;;
40244;SDS011;25963;42.694;23.600;2022-08-19T06:26:13;7.13;;;6.43;;
40244;SDS011;25963;42.694;23.600;2022-08-19T06:28:40;6.72;;;6.03;;
40244;SDS011;25963;42.694;23.600;2022-08-19T06:31:16;8.05;;;6.03;;
40244;SDS011;25963;42.694;23.600;2022-08-19T06:33:45;8.02;;;6.15;;
40244;SDS011;25963;42.694;23.600;2022-08-19T06:38:45;6.90;;;6.22;;
40244;SDS011;25963;42.694;23.600;2022-08-19T06:41:11;6.32;;;5.72;;
40244;SDS011;25963;42.694;23.600;2022-08-19T06:43:36;10.80;;;6.45;;
40244;SDS011;25963;42.694;23.600;2022-08-19T06:46:03;7.07;;;6.30;;
40244;SDS011;25963;42.694;23.600;2022-08-19T06:48:29;6.22;;;5.72;;
40244;SDS011;25963;42.694;23.600;2022-08-19T06:50:55;6.70;;;6.03;;
40244;SDS011;25963;42.694;23.600;2022-08-19T06:53:21;7.18;;;6.05;;
40244;SDS011;25963;42.694;23.600;2022-08-19T06:55:48;7.75;;;6.20;;
40244;SDS011;25963;42.694;23.600;2022-08-19T06:58:27;6.90;;;6.18;;
40244;SDS011;25963;42.694;23.600;2022-08-19T07:00:58;6.15;;;5.55;;
40244;SDS011;25963;42.694;23.600;2022-08-19T07:03:30;7.05;;;6.32;;
40244;SDS011;25963;42.694;23.600;2022-08-19T07:06:07;6.57;;;5.90;;
40244;SDS011;25963;42.694;23.600;2022-08-19T07:08:36;6.80;;;6.03;;
40244;SDS011;25963;42.694;23.600;2022-08-19T07:11:06;7.90;;;5.70;;
40244;SDS011;25963;42.694;23.600;2022-08-19T07:13:34;8.55;;;6.13;;
40244;SDS011;25963;42.694;23.600;2022-08-19T07:18:33;7.65;;;5.80;;
40244;SDS011;25963;42.694;23.600;2022-08-19T07:21:04;6.53;;;5.93;;
40244;SDS011;25963;42.694;23.600;2022-08-19T07:23:35;5.13;;;4.72;;
40244;SDS011;25963;42.694;23.600;2022-08-19T07:26:08;6.13;;;5.43;;
40244;SDS011;25963;42.694;23.600;2022-08-19T07:28:55;8.63;;;6.18;;
40244;SDS011;25963;42.694;23.600;2022-08-19T07:31:26;5.68;;;5.15;;
40244;SDS011;25963;42.694;23.600;2022-08-19T07:33:53;7.60;;;5.85;;
40244;SDS011;25963;42.694;23.600;2022-08-19T07:36:23;8.50;;;5.38;;
40244;SDS011;25963;42.694;23.600;2022-08-19T07:38:54;7.72;;;5.88;;
40244;SDS011;25963;42.694;23.600;2022-08-19T07:41:22;7.80;;;5.47;;
40244;SDS011;25963;42.694;23.600;2022-08-19T07:43:50;5.38;;;4.85;;
40244;SDS011;25963;42.694;23.600;2022-08-19T07:46:16;6.72;;;5.00;;
40244;SDS011;25963;42.694;23.600;2022-08-19T07:48:45;5.32;;;4.60;;
40244;SDS011;25963;42.694;23.600;2022-08-19T07:51:13;5.28;;;4.65;;
40244;SDS011;25963;42.694;23.600;2022-08-19T07:53:42;5.10;;;4.65;;
40244;SDS011;25963;42.694;23.600;2022-08-19T07:56:09;7.13;;;5.15;;
40244;SDS011;25963;42.694;23.600;2022-08-19T07:58:37;7.05;;;5.13;;
40244;SDS011;25963;42.694;23.600;2022-08-19T08:01:06;7.57;;;4.90;;
40244;SDS011;25963;42.694;23.600;2022-08-19T08:03:35;6.35;;;5.65;;
40244;SDS011;25963;42.694;23.600;2022-08-19T08:06:20;7.55;;;5.35;;
40244;SDS011;25963;42.694;23.600;2022-08-19T08:09:04;7.07;;;5.93;;
40244;SDS011;25963;42.694;23.600;2022-08-19T08:11:37;5.47;;;5.00;;
40244;SDS011;25963;42.694;23.600;2022-08-19T08:14:19;5.30;;;4.78;;
40244;SDS011;25963;42.694;23.600;2022-08-19T08:16:48;4.97;;;4.50;;
40244;SDS011;25963;42.694;23.600;2022-08-19T08:19:16;6.63;;;5.78;;
40244;SDS011;25963;42.694;23.600;2022-08-19T08:21:43;5.95;;;5.35;;
40244;SDS011;25963;42.694;23.600;2022-08-19T08:24:11;5.63;;;5.03;;
40244;SDS011;25963;42.694;23.600;2022-08-19T08:26:37;6.93;;;5.38;;
40244;SDS011;25963;42.694;23.600;2022-08-19T08:29:03;5.22;;;4.75;;
40244;SDS011;25963;42.694;23.600;2022-08-19T08:31:29;5.47;;;4.97;;
40244;SDS011;25963;42.694;23.600;2022-08-19T08:33:55;5.53;;;5.03;;
40244;SDS011;25963;42.694;23.600;2022-08-19T08:36:20;5.75;;;5.15;;
40244;SDS011;25963;42.694;23.600;2022-08-19T08:38:46;7.95;;;5.00;;
40244;SDS011;25963;42.694;23.600;2022-08-19T08:43:58;6.93;;;5.40;;
40244;SDS011;25963;42.694;23.600;2022-08-19T08:49:52;7.68;;;4.60;;
40244;SDS011;25963;42.694;23.600;2022-08-19T08:55:05;8.43;;;4.70;;
40244;SDS011;25963;42.694;23.600;2022-08-19T08:57:35;4.88;;;4.47;;
40244;SDS011;25963;42.694;23.600;2022-08-19T09:00:08;8.32;;;5.63;;
40244;SDS011;25963;42.694;23.600;2022-08-19T09:02:37;10.57;;;5.80;;
40244;SDS011;25963;42.694;23.600;2022-08-19T09:05:04;7.25;;;4.38;;
40244;SDS011;25963;42.694;23.600;2022-08-19T09:07:41;5.70;;;4.47;;
40244;SDS011;25963;42.694;23.600;2022-08-19T09:10:29;5.20;;;4.30;;
40244;SDS011;25963;42.694;23.600;2022-08-19T09:13:11;5.70;;;4.43;;
40244;SDS011;25963;42.694;23.600;2022-08-19T09:16:12;5.00;;;4.20;;
40244;SDS011;25963;42.694;23.600;2022-08-19T09:18:47;4.93;;;3.85;;
40244;SDS011;25963;42.694;23.600;2022-08-19T09:21:18;5.10;;;4.00;;
40244;SDS011;25963;42.694;23.600;2022-08-19T09:23:47;4.40;;;4.00;;
40244;SDS011;25963;42.694;23.600;2022-08-19T09:26:14;4.28;;;3.97;;
40244;SDS011;25963;42.694;23.600;2022-08-19T09:28:41;4.47;;;4.03;;
40244;SDS011;25963;42.694;23.600;2022-08-19T09:31:09;7.07;;;4.10;;
40244;SDS011;25963;42.694;23.600;2022-08-19T09:33:36;6.60;;;4.50;;
40244;SDS011;25963;42.694;23.600;2022-08-19T09:36:02;4.63;;;4.13;;
40244;SDS011;25963;42.694;23.600;2022-08-19T09:38:34;6.25;;;4.35;;
40244;SDS011;25963;42.694;23.600;2022-08-19T09:41:05;5.22;;;4.28;;
40244;SDS011;25963;42.694;23.600;2022-08-19T09:43:37;5.90;;;4.50;;
40244;SDS011;25963;42.694;23.600;2022-08-19T09:46:03;5.35;;;4.80;;
40244;SDS011;25963;42.694;23.600;2022-08-19T09:48:34;6.75;;;4.25;;
40244;SDS011;25963;42.694;23.600;2022-08-19T09:51:02;5.70;;;3.90;;
40244;SDS011;25963;42.694;23.600;2022-08-19T09:53:29;4.53;;;4.13;;
40244;SDS011;25963;42.694;23.600;2022-08-19T09:55:56;6.60;;;3.88;;
40244;SDS011;25963;42.694;23.600;2022-08-19T09:58:21;5.63;;;4.07;;
40244;SDS011;25963;42.694;23.600;2022-08-19T10:00:52;4.63;;;4.22;;
40244;SDS011;25963;42.694;23.600;2022-08-19T10:03:19;4.93;;;4.47;;
40244;SDS011;25963;42.694;23.600;2022-08-19T10:05:44;4.65;;;4.25;;
40244;SDS011;25963;42.694;23.600;2022-08-19T10:08:12;4.30;;;3.70;;
40244;SDS011;25963;42.694;23.600;2022-08-19T10:10:38;4.47;;;4.07;;
40244;SDS011;25963;42.694;23.600;2022-08-19T10:13:03;4.30;;;4.00;;
40244;SDS011;25963;42.694;23.600;2022-08-19T10:15:29;6.15;;;4.22;;
40244;SDS011;25963;42.694;23.600;2022-08-19T10:17:54;4.25;;;3.85;;
40244;SDS011;25963;42.694;23.600;2022-08-19T10:20:20;6.18;;;4.07;;
40244;SDS011;25963;42.694;23.600;2022-08-19T10:22:47;7.85;;;4.50;;
40244;SDS011;25963;42.694;23.600;2022-08-19T10:25:13;5.00;;;3.92;;
40244;SDS011;25963;42.694;23.600;2022-08-19T10:27:43;5.55;;;4.38;;
40244;SDS011;25963;42.694;23.600;2022-08-19T10:30:10;5.22;;;4.30;;
40244;SDS011;25963;42.694;23.600;2022-08-19T10:32:36;4.80;;;3.90;;
40244;SDS011;25963;42.694;23.600;2022-08-19T10:35:02;4.20;;;3.90;;
40244;SDS011;25963;42.694;23.600;2022-08-19T10:37:33;6.30;;;4.00;;
40244;SDS011;25963;42.694;23.600;2022-08-19T10:40:00;5.97;;;4.75;;
40244;SDS011;25963;42.694;23.600;2022-08-19T10:42:26;5.38;;;4.00;;
40244;SDS011;25963;42.694;23.600;2022-08-19T10:44:56;4.80;;;3.80;;
40244;SDS011;25963;42.694;23.600;2022-08-19T10:47:23;7.10;;;4.05;;
40244;SDS011;25963;42.694;23.600;2022-08-19T10:49:48;6.80;;;4.70;;
40244;SDS011;25963;42.694;23.600;2022-08-19T10:52:33;5.32;;;4.22;;
40244;SDS011;25963;42.694;23.600;2022-08-19T10:54:58;8.23;;;4.22;;
40244;SDS011;25963;42.694;23.600;2022-08-19T10:57:45;4.60;;;3.90;;
40244;SDS011;25963;42.694;23.600;2022-08-19T11:00:11;4.95;;;4.32;;
40244;SDS011;25963;42.694;23.600;2022-08-19T11:02:38;7.30;;;3.70;;
40244;SDS011;25963;42.694;23.600;2022-08-19T11:05:04;4.15;;;3.75;;
40244;SDS011;25963;42.694;23.600;2022-08-19T11:07:30;5.97;;;4.68;;
40244;SDS011;25963;42.694;23.600;2022-08-19T11:09:57;4.60;;;4.10;;
40244;SDS011;25963;42.694;23.600;2022-08-19T11:12:22;4.70;;;4.25;;
40244;SDS011;25963;42.694;23.600;2022-08-19T11:14:49;6.88;;;4.25;;
40244;SDS011;25963;42.694;23.600;2022-08-19T11:17:15;6.53;;;4.07;;
40244;SDS011;25963;42.694;23.600;2022-08-19T11:19:40;4.55;;;4.15;;
40244;SDS011;25963;42.694;23.600;2022-08-19T11:22:07;4.90;;;4.47;;
40244;SDS011;25963;42.694;23.600;2022-08-19T11:24:35;6.78;;;4.65;;
40244;SDS011;25963;42.694;23.600;2022-08-19T11:27:06;8.60;;;4.40;;
40244;SDS011;25963;42.694;23.600;2022-08-19T11:29:34;7.10;;;4.57;;
40244;SDS011;25963;42.694;23.600;2022-08-19T11:32:04;4.85;;;4.47;;
40244;SDS011;25963;42.694;23.600;2022-08-19T11:34:31;4.97;;;4.40;;
40244;SDS011;25963;42.694;23.600;2022-08-19T11:36:58;8.40;;;4.40;;
40244;SDS011;25963;42.694;23.600;2022-08-19T11:39:25;7.82;;;4.45;;
40244;SDS011;25963;42.694;23.600;2022-08-19T11:41:53;8.02;;;5.15;;
40244;SDS011;25963;42.694;23.600;2022-08-19T11:44:18;6.10;;;4.78;;
40244;SDS011;25963;42.694;23.600;2022-08-19T11:46:44;7.43;;;4.80;;
40244;SDS011;25963;42.694;23.600;2022-08-19T11:49:12;6.55;;;4.63;;
40244;SDS011;25963;42.694;23.600;2022-08-19T11:51:38;4.82;;;4.43;;
40244;SDS011;25963;42.694;23.600;2022-08-19T11:54:07;6.63;;;4.80;;
40244;SDS011;25963;42.694;23.600;2022-08-19T11:56:33;5.82;;;4.40;;
40244;SDS011;25963;42.694;23.600;2022-08-19T11:58:58;5.15;;;4.65;;
40244;SDS011;25963;42.694;23.600;2022-08-19T12:01:26;6.60;;;4.75;;
40244;SDS011;25963;42.694;23.600;2022-08-19T12:03:52;5.57;;;4.93;;
40244;SDS011;25963;42.694;23.600;2022-08-19T12:06:21;5.60;;;4.40;;
40244;SDS011;25963;42.694;23.600;2022-08-19T12:08:50;4.90;;;4.40;;
40244;SDS011;25963;42.694;23.600;2022-08-19T12:11:18;6.05;;;4.90;;
40244;SDS011;25963;42.694;23.600;2022-08-19T12:13:44;7.15;;;4.72;;
40244;SDS011;25963;42.694;23.600;2022-08-19T12:16:15;7.32;;;4.40;;
40244;SDS011;25963;42.694;23.600;2022-08-19T12:18:45;6.13;;;4.70;;
40244;SDS011;25963;42.694;23.600;2022-08-19T12:21:12;5.88;;;4.55;;
40244;SDS011;25963;42.694;23.600;2022-08-19T12:23:41;7.85;;;4.38;;
40244;SDS011;25963;42.694;23.600;2022-08-19T12:26:08;5.35;;;4.70;;
40244;SDS011;25963;42.694;23.600;2022-08-19T12:28:37;6.38;;;4.38;;
40244;SDS011;25963;42.694;23.600;2022-08-19T12:31:03;6.90;;;4.40;;
40244;SDS011;25963;42.694;23.600;2022-08-19T12:33:29;5.82;;;5.20;;
40244;SDS011;25963;42.694;23.600;2022-08-19T12:35:54;6.68;;;5.00;;
40244;SDS011;25963;42.694;23.600;2022-08-19T12:38:25;5.45;;;4.90;;
40244;SDS011;25963;42.694;23.600;2022-08-19T12:40:52;6.70;;;4.72;;
40244;SDS011;25963;42.694;23.600;2022-08-19T12:43:17;7.70;;;4.82;;
40244;SDS011;25963;42.694;23.600;2022-08-19T12:45:44;6.50;;;4.47;;
40244;SDS011;25963;42.694;23.600;2022-08-19T12:48:10;6.45;;;4.63;;
40244;SDS011;25963;42.694;23.600;2022-08-19T12:50:40;7.13;;;4.55;;
40244;SDS011;25963;42.694;23.600;2022-08-19T12:53:10;6.55;;;4.90;;
40244;SDS011;25963;42.694;23.600;2022-08-19T12:55:36;5.80;;;4.95;;
40244;SDS011;25963;42.694;23.600;2022-08-19T12:58:01;8.77;;;4.70;;
40244;SDS011;25963;42.694;23.600;2022-08-19T13:00:27;11.55;;;5.75;;
40244;SDS011;25963;42.694;23.600;2022-08-19T13:02:53;8.50;;;5.15;;
40244;SDS011;25963;42.694;23.600;2022-08-19T13:05:21;11.32;;;4.82;;
40244;SDS011;25963;42.694;23.600;2022-08-19T13:07:48;6.13;;;4.95;;
40244;SDS011;25963;42.694;23.600;2022-08-19T13:10:16;6.32;;;4.43;;
40244;SDS011;25963;42.694;23.600;2022-08-19T13:12:46;4.80;;;4.40;;
40244;SDS011;25963;42.694;23.600;2022-08-19T13:15:13;6.20;;;5.35;;
40244;SDS011;25963;42.694;23.600;2022-08-19T13:17:41;5.38;;;4.88;;
40244;SDS011;25963;42.694;23.600;2022-08-19T13:20:07;6.43;;;4.72;;
40244;SDS011;25963;42.694;23.600;2022-08-19T13:22:36;7.63;;;5.10;;
40244;SDS011;25963;42.694;23.600;2022-08-19T13:25:03;6.28;;;4.60;;
40244;SDS011;25963;42.694;23.600;2022-08-19T13:27:32;7.30;;;4.18;;
40244;SDS011;25963;42.694;23.600;2022-08-19T13:29:57;8.82;;;4.57;;
40244;SDS011;25963;42.694;23.600;2022-08-19T13:32:44;10.02;;;5.50;;
40244;SDS011;25963;42.694;23.600;2022-08-19T13:35:28;8.48;;;4.40;;
40244;SDS011;25963;42.694;23.600;2022-08-19T13:37:53;7.43;;;5.05;;
40244;SDS011;25963;42.694;23.600;2022-08-19T13:40:20;8.30;;;5.03;;
40244;SDS011;25963;42.694;23.600;2022-08-19T13:42:50;7.25;;;5.18;;
40244;SDS011;25963;42.694;23.600;2022-08-19T13:45:19;7.80;;;4.35;;
40244;SDS011;25963;42.694;23.600;2022-08-19T13:47:47;6.10;;;5.03;;
40244;SDS011;25963;42.694;23.600;2022-08-19T13:50:15;5.25;;;4.38;;
40244;SDS011;25963;42.694;23.600;2022-08-19T13:52:43;5.57;;;4.97;;
40244;SDS011;25963;42.694;23.600;2022-08-19T13:55:10;4.72;;;4.22;;
40244;SDS011;25963;42.694;23.600;2022-08-19T13:57:36;5.38;;;4.88;;
40244;SDS011;25963;42.694;23.600;2022-08-19T14:00:09;8.95;;;5.70;;
40244;SDS011;25963;42.694;23.600;2022-08-19T14:02:38;5.30;;;4.80;;
40244;SDS011;25963;42.694;23.600;2022-08-19T14:05:07;5.18;;;4.60;;
40244;SDS011;25963;42.694;23.600;2022-08-19T14:07:33;7.22;;;4.85;;
40244;SDS011;25963;42.694;23.600;2022-08-19T14:09:59;7.72;;;4.88;;
40244;SDS011;25963;42.694;23.600;2022-08-19T14:12:25;4.32;;;3.92;;
40244;SDS011;25963;42.694;23.600;2022-08-19T14:14:50;6.50;;;4.30;;
40244;SDS011;25963;42.694;23.600;2022-08-19T14:17:16;7.15;;;5.22;;
40244;SDS011;25963;42.694;23.600;2022-08-19T14:19:41;5.95;;;4.57;;
40244;SDS011;25963;42.694;23.600;2022-08-19T14:22:07;7.90;;;4.78;;
40244;SDS011;25963;42.694;23.600;2022-08-19T14:24:34;6.90;;;4.43;;
40244;SDS011;25963;42.694;23.600;2022-08-19T14:26:59;6.68;;;5.05;;
40244;SDS011;25963;42.694;23.600;2022-08-19T14:29:25;6.07;;;4.40;;
40244;SDS011;25963;42.694;23.600;2022-08-19T14:31:55;5.68;;;4.72;;
40244;SDS011;25963;42.694;23.600;2022-08-19T14:34:24;5.05;;;4.53;;
40244;SDS011;25963;42.694;23.600;2022-08-19T14:36:50;6.93;;;4.82;;
40244;SDS011;25963;42.694;23.600;2022-08-19T14:39:15;5.57;;;4.13;;
40244;SDS011;25963;42.694;23.600;2022-08-19T14:41:41;4.88;;;4.30;;
40244;SDS011;25963;42.694;23.600;2022-08-19T14:44:07;6.07;;;4.35;;
40244;SDS011;25963;42.694;23.600;2022-08-19T14:46:37;9.30;;;4.80;;
40244;SDS011;25963;42.694;23.600;2022-08-19T14:49:03;9.18;;;4.28;;
40244;SDS011;25963;42.694;23.600;2022-08-19T14:51:28;4.95;;;4.45;;
40244;SDS011;25963;42.694;23.600;2022-08-19T14:53:54;7.00;;;4.85;;
40244;SDS011;25963;42.694;23.600;2022-08-19T14:56:22;8.30;;;4.22;;